Terminal Aerodrome Forecast
Issued by NWS Newport/Morehead City, NC

Home | Current Version | Previous Version | Text Only | Print | Product List | Glossary On
Versions: 1 2 3 4 5 6 7 8 9 10 11 12 13 14 15 16 17
000
FTUS42 KMHX 210100 AAB
TAFEWN
TAF AMD
KEWN 210107Z 2101/2124 04009KT P6SM -RA SCT015 BKN035
      TEMPO 2101/2105 BKN007
     FM210500 03009KT 6SM -RA BR BKN010
      TEMPO 2105/2109 BKN007
     FM211500 34009KT P6SM FEW030 SCT060=

USA.gov is the U.S. government's official web portal to all federal, state and local government web resources and services.